createdAt,value
2022-10-14T00:02:37.088Z,12.06
2022-10-14T00:07:40.759Z,12.05
2022-10-14T00:12:42.476Z,11.97
2022-10-14T00:17:44.148Z,11.95
2022-10-14T00:22:45.756Z,11.85
2022-10-14T00:27:47.325Z,11.89
2022-10-14T00:32:48.950Z,11.95
2022-10-14T00:37:50.690Z,11.99
2022-10-14T00:42:52.440Z,12.05
2022-10-14T00:47:54.096Z,12.10
2022-10-14T00:52:56.300Z,12.14
2022-10-14T00:57:57.940Z,12.15
2022-10-14T01:02:59.494Z,12.13
2022-10-14T01:08:18.954Z,12.10
2022-10-14T01:13:24.328Z,12.06
2022-10-14T01:18:25.886Z,12.04
2022-10-14T01:23:55.409Z,12.06
2022-10-14T01:29:14.519Z,12.06
2022-10-14T01:34:25.932Z,12.10
2022-10-14T01:39:33.119Z,12.09
2022-10-14T01:44:42.048Z,12.05
2022-10-14T01:50:07.764Z,11.97
2022-10-14T01:55:15.957Z,11.79
2022-10-14T02:00:17.887Z,11.70
2022-10-14T02:05:43.922Z,11.61
2022-10-14T02:11:04.218Z,11.57
2022-10-14T02:16:36.877Z,11.53
2022-10-14T02:21:42.846Z,11.40
2022-10-14T02:26:46.386Z,11.28
2022-10-14T02:31:50.986Z,11.16
2022-10-14T02:36:55.478Z,11.14
2022-10-14T02:41:58.080Z,11.21
2022-10-14T02:46:59.643Z,11.30
2022-10-14T02:52:03.675Z,11.33
2022-10-14T02:57:05.292Z,11.36
2022-10-14T03:02:07.650Z,11.38
2022-10-14T03:07:11.099Z,11.43
2022-10-14T03:12:18.796Z,11.51
2022-10-14T03:17:20.978Z,11.53
2022-10-14T03:22:24.704Z,11.49
2022-10-14T03:27:26.524Z,11.52
2022-10-14T03:32:33.994Z,11.55
2022-10-14T03:37:55.854Z,11.54
2022-10-14T03:43:04.056Z,11.51
2022-10-14T03:48:15.732Z,11.42
2022-10-14T03:53:17.337Z,11.29
2022-10-14T03:58:19.117Z,11.13
2022-10-14T04:03:32.154Z,10.92
2022-10-14T04:08:35.207Z,10.88
2022-10-14T04:13:49.554Z,10.94
2022-10-14T04:18:51.185Z,10.99
2022-10-14T04:23:56.514Z,10.90
2022-10-14T04:29:10.659Z,10.87
2022-10-14T04:34:23.036Z,10.89
2022-10-14T04:39:26.645Z,10.80
2022-10-14T04:44:28.498Z,10.69
2022-10-14T04:49:30.253Z,10.68
2022-10-14T04:54:42.807Z,10.61
2022-10-14T04:59:44.932Z,10.55
2022-10-14T05:04:53.579Z,10.45
2022-10-14T05:09:56.863Z,10.40
2022-10-14T05:15:14.665Z,10.31
2022-10-14T05:20:26.732Z,10.41
2022-10-14T05:25:31.085Z,10.47
2022-10-14T05:30:34.920Z,10.56
2022-10-14T05:35:58.054Z,10.57
2022-10-14T05:41:01.609Z,10.59
2022-10-14T05:46:03.479Z,10.59
2022-10-14T05:51:10.443Z,10.67
2022-10-14T05:56:13.557Z,10.76
2022-10-14T06:01:15.667Z,10.85
2022-10-14T06:06:18.306Z,11.00
2022-10-14T06:11:19.917Z,11.09
2022-10-14T06:16:21.624Z,11.17
2022-10-14T06:21:23.365Z,11.35
2022-10-14T06:26:24.987Z,11.57
2022-10-14T06:31:31.234Z,11.88
2022-10-14T06:36:35.127Z,12.21
2022-10-14T06:41:36.713Z,12.48
2022-10-14T06:46:38.323Z,12.78
2022-10-14T06:51:40.568Z,12.99
2022-10-14T06:56:42.168Z,13.07
2022-10-14T07:01:43.847Z,13.02
2022-10-14T07:06:45.366Z,13.02
2022-10-14T07:11:46.951Z,13.10
2022-10-14T07:16:48.628Z,13.21
2022-10-14T07:21:50.225Z,13.32
2022-10-14T07:26:52.027Z,13.38
2022-10-14T07:31:53.833Z,13.41
2022-10-14T07:36:55.395Z,13.49
2022-10-14T07:41:57.043Z,13.55
2022-10-14T07:46:59.696Z,13.68
2022-10-14T07:52:01.404Z,13.74
2022-10-14T07:57:03.141Z,13.84
2022-10-14T08:02:05.002Z,14.05
2022-10-14T08:07:06.616Z,14.25
2022-10-14T08:12:08.352Z,14.58
2022-10-14T08:17:09.878Z,14.87
2022-10-14T08:22:11.579Z,15.21
2022-10-14T08:27:13.225Z,15.49
2022-10-14T08:32:15.384Z,15.83
2022-10-14T08:37:16.992Z,16.07
2022-10-14T08:42:30.085Z,16.28
2022-10-14T08:47:37.549Z,16.45
2022-10-14T08:52:47.058Z,16.65
2022-10-14T08:57:54.056Z,16.82
2022-10-14T09:02:58.521Z,17.01
2022-10-14T09:08:00.770Z,16.92
2022-10-14T09:13:28.332Z,16.89
2022-10-14T09:18:39.771Z,16.95
2022-10-14T09:23:41.288Z,17.11
2022-10-14T09:28:44.547Z,17.25
2022-10-14T09:33:46.337Z,17.43
2022-10-14T09:38:55.453Z,17.44
2022-10-14T09:44:25.472Z,17.59
2022-10-14T09:49:47.922Z,17.85
2022-10-14T09:54:58.745Z,18.09
2022-10-14T10:00:04.033Z,18.42
2022-10-14T10:05:27.980Z,18.75
2022-10-14T10:10:30.870Z,18.70
2022-10-14T10:15:32.461Z,18.45
2022-10-14T10:20:34.182Z,17.28
2022-10-14T10:25:35.740Z,16.52
2022-10-14T10:31:03.115Z,16.54
2022-10-14T10:36:29.069Z,16.70
2022-10-14T10:41:53.365Z,17.15
2022-10-14T10:47:31.408Z,17.52
2022-10-14T10:52:47.961Z,17.78
2022-10-14T10:58:27.618Z,18.07
2022-10-14T11:03:38.815Z,18.09
2022-10-14T11:09:12.072Z,18.32
2022-10-14T11:14:48.572Z,18.57
2022-10-14T11:20:15.776Z,18.74
2022-10-14T11:25:44.921Z,19.01
2022-10-14T11:31:05.067Z,19.21
2022-10-14T11:36:12.431Z,19.59
2022-10-14T11:41:25.224Z,19.64
2022-10-14T11:46:32.710Z,19.90
2022-10-14T11:51:40.957Z,20.15
2022-10-14T11:57:05.955Z,20.29
2022-10-14T12:02:32.024Z,20.12
2022-10-14T12:07:42.009Z,19.91
2022-10-14T12:12:43.882Z,19.62
2022-10-14T12:17:52.269Z,19.22
2022-10-14T12:22:56.319Z,18.89
2022-10-14T12:27:58.417Z,18.93
2022-10-14T12:33:09.492Z,18.91
2022-10-14T12:38:14.787Z,18.82
2022-10-14T12:43:26.314Z,18.90
2022-10-14T12:48:33.220Z,19.39
2022-10-14T12:53:36.315Z,20.02
2022-10-14T12:58:50.624Z,20.23
2022-10-14T13:09:13.026Z,19.25
2022-10-14T13:14:25.975Z,18.74
2022-10-14T13:19:33.344Z,18.35
2022-10-14T13:24:43.914Z,17.89
2022-10-14T13:30:03.722Z,17.40
2022-10-14T13:35:17.602Z,17.05
2022-10-14T13:40:21.047Z,16.77
2022-10-14T13:45:32.375Z,16.37
2022-10-14T13:50:38.006Z,16.03
2022-10-14T13:55:54.680Z,15.72
2022-10-14T14:00:59.364Z,15.89
2022-10-14T14:06:02.040Z,16.05
2022-10-14T14:11:22.769Z,16.21
2022-10-14T14:16:29.196Z,16.32
2022-10-14T14:21:31.052Z,16.41
2022-10-14T14:26:35.558Z,16.40
2022-10-14T14:32:04.900Z,16.24
2022-10-14T14:37:16.620Z,16.22
2022-10-14T14:42:25.808Z,16.24
2022-10-14T14:47:29.233Z,16.24
2022-10-14T14:52:31.240Z,16.32
2022-10-14T14:57:32.863Z,16.36
2022-10-14T15:02:35.020Z,16.40
2022-10-14T15:07:37.020Z,16.41
2022-10-14T15:12:41.979Z,16.38
2022-10-14T15:17:47.635Z,16.59
2022-10-14T15:22:49.886Z,16.72
2022-10-14T15:27:53.033Z,16.73
2022-10-14T15:32:57.776Z,16.65
2022-10-14T15:37:59.372Z,16.45
2022-10-14T15:43:01.099Z,16.27
2022-10-14T15:48:06.593Z,16.08
2022-10-14T15:53:09.190Z,15.82
2022-10-14T15:58:10.704Z,15.66
2022-10-14T16:03:12.379Z,15.60
2022-10-14T16:08:18.087Z,15.55
2022-10-14T16:13:20.005Z,15.47
2022-10-14T16:18:23.283Z,15.41
2022-10-14T16:23:29.744Z,15.28
2022-10-14T16:28:34.948Z,15.14
2022-10-14T16:33:38.282Z,15.06
2022-10-14T16:38:45.008Z,15.00
2022-10-14T16:43:47.584Z,14.95
2022-10-14T16:48:50.865Z,14.86
2022-10-14T16:53:52.380Z,14.81
2022-10-14T16:58:53.928Z,14.80
2022-10-14T17:03:57.137Z,14.79
2022-10-14T17:08:58.851Z,14.79
2022-10-14T17:14:01.288Z,14.77
2022-10-14T17:19:02.867Z,14.78
2022-10-14T17:24:04.899Z,14.74
2022-10-14T17:29:06.477Z,14.71
2022-10-14T17:34:08.081Z,14.75
2022-10-14T17:39:18.710Z,14.77
2022-10-14T17:44:25.892Z,14.80
2022-10-14T17:49:27.785Z,14.81
2022-10-14T17:54:32.370Z,14.80
2022-10-14T17:59:34.827Z,14.84
2022-10-14T18:04:37.457Z,14.79
2022-10-14T18:09:39.065Z,14.76
2022-10-14T18:14:41.267Z,14.62
2022-10-14T18:19:45.067Z,14.60
2022-10-14T18:24:49.995Z,14.60
2022-10-14T18:29:51.713Z,14.54
2022-10-14T18:34:53.239Z,14.47
2022-10-14T18:39:54.862Z,14.40
2022-10-14T18:44:56.508Z,14.28
2022-10-14T18:49:59.595Z,14.19
2022-10-14T18:55:01.209Z,14.06
2022-10-14T19:00:03.471Z,13.87
2022-10-14T19:05:05.420Z,13.63
2022-10-14T19:10:07.310Z,13.50
2022-10-14T19:15:10.954Z,13.41
2022-10-14T19:20:12.488Z,13.37
2022-10-14T19:25:16.498Z,13.35
2022-10-14T19:30:18.117Z,13.34
2022-10-14T19:35:21.700Z,13.28
2022-10-14T19:40:23.816Z,13.26
2022-10-14T19:45:25.451Z,13.27
2022-10-14T19:50:26.971Z,13.28
2022-10-14T19:55:28.590Z,13.29
2022-10-14T20:00:30.252Z,13.26
2022-10-14T20:05:31.816Z,13.27
2022-10-14T20:10:33.393Z,13.28
2022-10-14T20:15:34.929Z,13.29
2022-10-14T20:20:40.009Z,13.34
2022-10-14T20:25:41.751Z,13.38
2022-10-14T20:30:43.721Z,13.36
2022-10-14T20:35:45.400Z,13.37
2022-10-14T20:40:46.934Z,13.41
2022-10-14T20:45:48.503Z,13.38
2022-10-14T20:50:50.047Z,13.39
2022-10-14T20:55:52.109Z,13.42
2022-10-14T21:00:53.656Z,13.44
2022-10-14T21:05:55.249Z,13.45
2022-10-14T21:10:58.470Z,13.47
2022-10-14T21:15:59.989Z,13.47
2022-10-14T21:21:02.080Z,13.46
2022-10-14T21:26:03.635Z,13.46
2022-10-14T21:31:07.574Z,13.53
2022-10-14T21:36:14.535Z,13.57
2022-10-14T21:41:16.127Z,13.60
2022-10-14T21:46:18.076Z,13.61
2022-10-14T21:51:19.625Z,13.62
2022-10-14T21:56:21.431Z,13.63
2022-10-14T22:01:26.951Z,13.64
2022-10-14T22:06:28.636Z,13.66
2022-10-14T22:11:32.884Z,13.66
2022-10-14T22:16:35.465Z,13.67
2022-10-14T22:21:39.870Z,13.69
2022-10-14T22:26:41.845Z,13.71
2022-10-14T22:31:44.415Z,13.73
2022-10-14T22:36:46.094Z,13.73
2022-10-14T22:41:47.694Z,13.73
2022-10-14T22:46:49.291Z,13.75
2022-10-14T22:51:53.234Z,13.77
2022-10-14T22:56:57.512Z,13.81
2022-10-14T23:01:59.102Z,13.87
2022-10-14T23:07:04.466Z,13.90
2022-10-14T23:12:08.491Z,13.93
2022-10-14T23:17:10.090Z,13.97
2022-10-14T23:22:11.698Z,14.00
2022-10-14T23:27:13.298Z,14.02
2022-10-14T23:32:14.901Z,14.05
2022-10-14T23:37:16.475Z,14.08
2022-10-14T23:42:18.248Z,14.13
2022-10-14T23:47:19.826Z,14.16
2022-10-14T23:52:21.389Z,14.19
2022-10-14T23:57:25.644Z,14.24
